createdAt,value
2022-10-13T00:00:16.243Z,13.27
2022-10-13T00:02:44.619Z,12.93
2022-10-13T00:05:14.344Z,15.50
2022-10-13T00:07:42.716Z,11.40
2022-10-13T00:10:13.398Z,17.97
2022-10-13T00:12:41.505Z,11.57
2022-10-13T00:15:10.983Z,13.33
2022-10-13T00:17:39.266Z,15.17
2022-10-13T00:20:08.895Z,10.03
2022-10-13T00:22:38.712Z,13.00
2022-10-13T00:25:09.886Z,13.33
2022-10-13T00:27:39.225Z,9.67
2022-10-13T00:30:10.733Z,11.17
2022-10-13T00:32:39.205Z,8.70
2022-10-13T00:35:07.766Z,14.60
2022-10-13T00:37:35.889Z,11.30
2022-10-13T00:40:07.032Z,18.30
2022-10-13T00:42:35.135Z,12.57
2022-10-13T00:45:08.222Z,10.63
2022-10-13T00:47:41.649Z,14.97
2022-10-13T00:50:13.218Z,18.43
2022-10-13T00:52:43.844Z,14.73
2022-10-13T00:55:18.113Z,13.03
2022-10-13T00:57:54.733Z,13.80
2022-10-13T01:00:24.571Z,22.43
2022-10-13T01:02:53.346Z,16.20
2022-10-13T01:05:23.177Z,12.70
2022-10-13T01:07:52.366Z,20.40
2022-10-13T01:10:31.181Z,16.30
2022-10-13T01:13:05.193Z,20.43
2022-10-13T01:15:39.926Z,15.50
2022-10-13T01:18:17.733Z,14.60
2022-10-13T01:20:58.975Z,17.63
2022-10-13T01:24:14.552Z,11.67
2022-10-13T01:27:05.232Z,17.53
2022-10-13T01:30:07.059Z,15.73
2022-10-13T01:32:52.102Z,12.40
2022-10-13T01:35:27.102Z,15.57
2022-10-13T01:37:59.174Z,12.57
2022-10-13T01:40:33.510Z,17.00
2022-10-13T01:43:06.405Z,17.87
2022-10-13T01:45:41.671Z,12.07
2022-10-13T01:48:11.956Z,14.93
2022-10-13T01:50:41.047Z,12.90
2022-10-13T01:53:12.181Z,14.10
2022-10-13T01:55:51.447Z,16.33
2022-10-13T01:58:19.824Z,17.87
2022-10-13T02:01:01.537Z,18.27
2022-10-13T02:03:41.286Z,21.37
2022-10-13T02:06:20.704Z,13.90
2022-10-13T02:08:58.182Z,16.73
2022-10-13T02:11:26.645Z,13.07
2022-10-13T02:14:01.303Z,13.53
2022-10-13T02:16:35.400Z,18.33
2022-10-13T02:19:07.111Z,14.57
2022-10-13T02:21:35.843Z,14.27
2022-10-13T02:24:04.920Z,19.53
2022-10-13T02:26:34.824Z,16.37
2022-10-13T02:29:10.037Z,16.93
2022-10-13T02:31:43.933Z,14.23
2022-10-13T02:34:12.972Z,14.10
2022-10-13T02:36:41.882Z,16.70
2022-10-13T02:39:11.270Z,14.37
2022-10-13T02:41:41.462Z,12.23
2022-10-13T02:44:09.788Z,16.43
2022-10-13T02:46:39.861Z,16.10
2022-10-13T02:49:08.225Z,16.63
2022-10-13T02:51:40.087Z,12.73
2022-10-13T02:54:09.015Z,14.27
2022-10-13T02:56:40.985Z,14.97
2022-10-13T02:59:09.102Z,12.10
2022-10-13T03:01:41.441Z,15.27
2022-10-13T03:04:11.493Z,14.37
2022-10-13T03:06:39.916Z,12.93
2022-10-13T03:09:09.215Z,11.63
2022-10-13T03:11:37.309Z,17.13
2022-10-13T03:14:05.585Z,15.13
2022-10-13T03:16:34.095Z,13.30
2022-10-13T03:19:02.507Z,16.30
2022-10-13T03:21:32.350Z,12.20
2022-10-13T03:24:00.547Z,21.73
2022-10-13T03:26:28.986Z,10.70
2022-10-13T03:28:57.130Z,16.17
2022-10-13T03:31:25.486Z,16.00
2022-10-13T03:33:53.840Z,13.73
2022-10-13T03:36:22.009Z,13.70
2022-10-13T03:38:51.718Z,14.70
2022-10-13T03:41:20.706Z,11.73
2022-10-13T03:43:48.929Z,13.53
2022-10-13T03:46:19.444Z,16.90
2022-10-13T03:48:48.529Z,19.03
2022-10-13T03:51:19.775Z,15.90
2022-10-13T03:53:48.979Z,12.10
2022-10-13T03:56:20.730Z,14.40
2022-10-13T03:58:53.868Z,14.17
2022-10-13T04:01:22.446Z,11.03
2022-10-13T04:03:51.552Z,14.57
2022-10-13T04:06:20.009Z,14.67
2022-10-13T04:08:48.496Z,11.90
2022-10-13T04:11:18.829Z,18.73
2022-10-13T04:13:47.495Z,13.70
2022-10-13T04:16:17.597Z,11.63
2022-10-13T04:18:46.259Z,17.13
2022-10-13T04:21:16.343Z,12.83
2022-10-13T04:23:44.325Z,12.30
2022-10-13T04:26:19.625Z,13.20
2022-10-13T04:28:49.048Z,24.83
2022-10-13T04:31:18.057Z,12.27
2022-10-13T04:33:46.916Z,11.03
2022-10-13T04:36:16.588Z,10.57
2022-10-13T04:38:45.395Z,14.43
2022-10-13T04:41:14.714Z,14.80
2022-10-13T04:43:44.660Z,15.70
2022-10-13T04:46:17.012Z,9.43
2022-10-13T04:48:45.170Z,14.57
2022-10-13T04:51:15.235Z,22.97
2022-10-13T04:53:43.566Z,16.33
2022-10-13T04:56:13.804Z,14.90
2022-10-13T04:58:46.381Z,18.77
2022-10-13T05:01:22.277Z,13.93
2022-10-13T05:03:53.032Z,16.13
2022-10-13T05:06:23.711Z,16.03
2022-10-13T05:08:52.379Z,18.50
2022-10-13T05:11:20.949Z,11.50
2022-10-13T05:13:50.622Z,16.60
2022-10-13T05:16:21.351Z,15.27
2022-10-13T05:18:49.986Z,13.13
2022-10-13T05:21:20.430Z,22.17
2022-10-13T05:23:48.717Z,15.23
2022-10-13T05:26:18.703Z,12.43
2022-10-13T05:28:47.555Z,12.50
2022-10-13T05:31:19.288Z,16.87
2022-10-13T05:33:47.997Z,15.60
2022-10-13T05:36:17.831Z,18.37
2022-10-13T05:38:47.401Z,18.83
2022-10-13T05:41:16.167Z,19.30
2022-10-13T05:43:44.682Z,12.10
2022-10-13T05:46:13.188Z,17.70
2022-10-13T05:48:45.762Z,13.37
2022-10-13T05:51:18.257Z,16.03
2022-10-13T05:53:55.336Z,17.20
2022-10-13T05:56:31.698Z,17.43
2022-10-13T05:59:04.073Z,13.73
2022-10-13T06:01:35.874Z,10.43
2022-10-13T06:04:09.907Z,13.73
2022-10-13T06:06:38.342Z,18.10
2022-10-13T06:09:06.616Z,22.20
2022-10-13T06:11:34.763Z,21.37
2022-10-13T06:14:03.712Z,17.70
2022-10-13T06:16:31.900Z,15.43
2022-10-13T06:18:59.980Z,11.20
2022-10-13T06:21:29.596Z,16.33
2022-10-13T06:23:58.869Z,19.60
2022-10-13T06:26:26.970Z,17.33
2022-10-13T06:28:59.294Z,11.83
2022-10-13T06:31:28.339Z,15.27
2022-10-13T06:33:56.879Z,15.27
2022-10-13T06:36:25.250Z,19.80
2022-10-13T06:38:55.040Z,21.33
2022-10-13T06:41:23.600Z,12.23
2022-10-13T06:43:51.773Z,19.53
2022-10-13T06:46:20.718Z,20.07
2022-10-13T06:48:51.388Z,17.47
2022-10-13T06:51:19.629Z,15.90
2022-10-13T06:53:47.787Z,14.30
2022-10-13T06:56:17.365Z,10.37
2022-10-13T06:58:46.349Z,15.30
2022-10-13T07:01:15.221Z,12.37
2022-10-13T07:03:43.867Z,18.10
2022-10-13T07:06:19.797Z,12.87
2022-10-13T07:08:50.149Z,13.10
2022-10-13T07:11:19.847Z,14.30
2022-10-13T07:13:48.040Z,14.90
2022-10-13T07:16:16.844Z,11.03
2022-10-13T07:18:45.247Z,13.87
2022-10-13T07:21:13.439Z,13.83
2022-10-13T07:23:42.095Z,12.77
2022-10-13T07:26:12.126Z,15.13
2022-10-13T07:28:41.800Z,12.57
2022-10-13T07:31:13.822Z,13.83
2022-10-13T07:33:42.780Z,21.93
2022-10-13T07:36:11.968Z,17.97
2022-10-13T07:38:40.398Z,14.03
2022-10-13T07:41:10.914Z,17.87
2022-10-13T07:43:39.017Z,11.23
2022-10-13T07:46:09.951Z,12.90
2022-10-13T07:48:38.320Z,18.33
2022-10-13T07:51:08.279Z,17.03
2022-10-13T07:53:36.985Z,11.97
2022-10-13T07:56:07.887Z,14.07
2022-10-13T07:58:39.046Z,10.40
2022-10-13T08:01:09.846Z,10.47
2022-10-13T08:03:39.429Z,12.63
2022-10-13T08:06:11.081Z,9.13
2022-10-13T08:08:40.338Z,17.33
2022-10-13T08:11:12.383Z,15.03
2022-10-13T08:13:44.393Z,14.83
2022-10-13T08:16:14.181Z,11.67
2022-10-13T08:18:42.278Z,14.87
2022-10-13T08:24:02.579Z,14.07
2022-10-13T08:26:31.290Z,15.83
2022-10-13T08:34:23.292Z,12.27
2022-10-13T08:36:56.839Z,12.13
2022-10-13T08:39:26.496Z,11.73
2022-10-13T08:41:57.557Z,12.83
2022-10-13T08:45:06.215Z,9.63
2022-10-13T08:47:43.537Z,14.57
2022-10-13T08:50:15.409Z,14.17
2022-10-13T08:52:50.339Z,11.03
2022-10-13T08:55:29.516Z,13.03
2022-10-13T08:57:58.326Z,12.23
2022-10-13T09:00:26.604Z,20.03
2022-10-13T09:03:03.545Z,14.97
2022-10-13T09:05:39.787Z,11.20
2022-10-13T09:08:17.867Z,12.83
2022-10-13T09:10:50.425Z,13.37
2022-10-13T09:13:19.607Z,16.57
2022-10-13T09:15:50.481Z,15.30
2022-10-13T09:18:20.544Z,8.00
2022-10-13T09:20:48.822Z,10.27
2022-10-13T09:23:21.131Z,13.90
2022-10-13T09:25:51.065Z,12.03
2022-10-13T09:28:23.049Z,13.70
2022-10-13T09:31:03.777Z,15.50
2022-10-13T09:33:37.059Z,12.93
2022-10-13T09:36:12.431Z,11.03
2022-10-13T09:38:45.732Z,8.87
2022-10-13T09:41:18.715Z,10.50
2022-10-13T09:44:01.292Z,7.33
2022-10-13T09:46:35.150Z,14.27
2022-10-13T09:49:08.298Z,10.93
2022-10-13T09:51:40.209Z,9.70
2022-10-13T09:54:26.098Z,12.97
2022-10-13T09:57:00.294Z,10.33
2022-10-13T09:59:36.759Z,13.27
2022-10-13T10:02:29.930Z,7.57
2022-10-13T10:05:05.733Z,10.53
2022-10-13T10:07:35.381Z,15.67
2022-10-13T10:10:14.697Z,13.77
2022-10-13T10:12:44.610Z,15.83
2022-10-13T10:15:33.453Z,11.30
2022-10-13T10:18:08.383Z,15.53
2022-10-13T10:21:01.934Z,14.93
2022-10-13T10:23:44.056Z,12.43
2022-10-13T10:26:22.243Z,10.93
2022-10-13T10:29:03.365Z,16.83
2022-10-13T10:31:44.952Z,11.13
2022-10-13T10:34:32.448Z,10.43
2022-10-13T10:37:14.793Z,13.67
2022-10-13T10:39:49.196Z,11.23
2022-10-13T10:43:00.619Z,16.57
2022-10-13T10:45:35.802Z,10.97
2022-10-13T10:48:12.861Z,12.07
2022-10-13T10:50:41.972Z,15.23
2022-10-13T10:53:21.824Z,17.37
2022-10-13T10:55:55.623Z,9.97
2022-10-13T10:58:33.220Z,18.07
2022-10-13T11:01:15.524Z,10.83
2022-10-13T11:03:52.100Z,8.10
2022-10-13T11:06:26.441Z,8.27
2022-10-13T11:08:56.659Z,12.80
2022-10-13T11:11:45.897Z,14.50
2022-10-13T11:14:38.086Z,10.20
2022-10-13T11:17:20.636Z,11.73
2022-10-13T11:19:50.269Z,14.00
2022-10-13T11:22:20.905Z,10.27
2022-10-13T11:24:56.392Z,14.60
2022-10-13T11:27:39.046Z,12.70
2022-10-13T11:30:31.098Z,13.67
2022-10-13T11:32:59.293Z,7.87
2022-10-13T11:35:29.814Z,10.40
2022-10-13T11:38:32.222Z,10.23
2022-10-13T11:41:17.104Z,10.33
2022-10-13T11:43:56.058Z,10.07
2022-10-13T11:46:32.720Z,12.63
2022-10-13T11:49:36.745Z,14.90
2022-10-13T11:52:45.990Z,12.90
2022-10-13T11:55:19.586Z,12.00
2022-10-13T11:57:49.170Z,16.23
2022-10-13T12:00:19.718Z,14.93
2022-10-13T12:02:53.553Z,12.00
2022-10-13T12:05:24.839Z,14.33
2022-10-13T12:07:56.124Z,16.77
2022-10-13T12:10:31.003Z,8.63
2022-10-13T12:13:01.921Z,11.70
2022-10-13T12:15:33.913Z,18.07
2022-10-13T12:18:02.950Z,21.27
2022-10-13T12:20:33.031Z,15.63
2022-10-13T12:23:01.203Z,11.63
2022-10-13T12:25:31.480Z,10.23
2022-10-13T12:28:02.170Z,15.47
2022-10-13T12:30:36.037Z,14.40
2022-10-13T12:33:06.319Z,18.67
2022-10-13T12:35:35.859Z,10.20
2022-10-13T12:38:08.663Z,12.13
2022-10-13T12:40:37.190Z,12.50
2022-10-13T12:43:07.054Z,9.90
2022-10-13T12:45:36.678Z,14.60
2022-10-13T12:48:05.273Z,15.83
2022-10-13T12:50:39.376Z,15.67
2022-10-13T12:53:15.577Z,13.10
2022-10-13T12:56:01.672Z,16.50
2022-10-13T12:58:34.138Z,12.97
2022-10-13T13:01:27.475Z,17.80
2022-10-13T13:03:57.571Z,10.63
2022-10-13T13:06:35.003Z,12.70
2022-10-13T13:09:28.420Z,16.03
2022-10-13T13:12:22.193Z,14.93
2022-10-13T13:14:56.841Z,13.33
2022-10-13T13:17:56.567Z,13.87
2022-10-13T13:20:21.799Z,15.50
2022-10-13T13:22:51.068Z,11.67
2022-10-13T13:25:19.441Z,16.10
2022-10-13T13:27:48.110Z,12.73
2022-10-13T13:30:20.558Z,11.60
2022-10-13T13:32:49.996Z,11.80
2022-10-13T13:35:18.919Z,13.17
2022-10-13T13:37:50.127Z,15.27
2022-10-13T13:40:20.752Z,14.60
2022-10-13T13:42:48.980Z,11.47
2022-10-13T13:45:20.594Z,17.20
2022-10-13T13:47:49.734Z,9.53
2022-10-13T13:50:21.956Z,10.80
2022-10-13T13:52:50.380Z,10.33
2022-10-13T13:55:19.326Z,16.70
2022-10-13T13:57:47.793Z,15.70
2022-10-13T14:00:21.489Z,17.53
2022-10-13T14:02:50.130Z,15.63
2022-10-13T14:05:18.969Z,17.00
2022-10-13T14:07:47.058Z,12.53
2022-10-13T14:10:15.624Z,10.47
2022-10-13T14:12:44.661Z,11.37
2022-10-13T14:15:12.943Z,12.73
2022-10-13T14:17:43.376Z,11.87
2022-10-13T14:20:15.100Z,12.43
2022-10-13T14:22:43.408Z,15.13
2022-10-13T14:25:12.149Z,14.93
2022-10-13T14:27:40.369Z,15.83
2022-10-13T14:30:11.351Z,8.47
2022-10-13T14:32:40.113Z,16.60
2022-10-13T14:35:10.349Z,16.10
2022-10-13T14:37:39.128Z,15.07
2022-10-13T14:40:08.672Z,9.33
2022-10-13T14:42:36.886Z,10.30
2022-10-13T14:45:06.746Z,12.97
2022-10-13T14:47:35.092Z,13.23
2022-10-13T14:50:03.473Z,14.40
2022-10-13T14:52:33.435Z,20.07
2022-10-13T14:55:01.605Z,13.03
2022-10-13T14:57:30.009Z,13.40
2022-10-13T15:00:01.850Z,18.20
2022-10-13T15:02:31.266Z,20.33
2022-10-13T15:04:59.965Z,10.33
2022-10-13T15:07:28.231Z,13.27
2022-10-13T15:10:05.317Z,15.13
2022-10-13T15:12:34.261Z,14.50
2022-10-13T15:15:02.874Z,12.90
2022-10-13T15:17:33.516Z,14.67
2022-10-13T15:20:01.822Z,10.57
2022-10-13T15:22:30.534Z,13.57
2022-10-13T15:24:59.961Z,10.43
2022-10-13T15:27:28.126Z,14.20
2022-10-13T15:29:56.659Z,11.67
2022-10-13T15:32:25.265Z,22.90
2022-10-13T15:34:54.537Z,12.03
2022-10-13T15:37:23.085Z,19.33
2022-10-13T15:39:56.912Z,17.53
2022-10-13T15:42:27.354Z,13.10
2022-10-13T15:45:11.684Z,11.60
2022-10-13T15:47:40.610Z,15.33
2022-10-13T15:50:10.123Z,15.60
2022-10-13T15:52:45.914Z,11.10
2022-10-13T15:55:14.116Z,12.43
2022-10-13T15:57:43.709Z,16.50
2022-10-13T16:00:14.373Z,14.07
2022-10-13T16:02:43.379Z,11.53
2022-10-13T16:05:13.862Z,13.17
2022-10-13T16:07:42.255Z,13.17
2022-10-13T16:10:12.606Z,13.20
2022-10-13T16:12:48.528Z,10.57
2022-10-13T16:15:20.135Z,15.03
2022-10-13T16:17:48.419Z,14.87
2022-10-13T16:20:16.498Z,16.53
2022-10-13T16:22:44.792Z,12.67
2022-10-13T16:25:13.332Z,12.87
2022-10-13T16:27:44.302Z,9.97
2022-10-13T16:30:13.418Z,10.00
2022-10-13T16:32:43.637Z,15.30
2022-10-13T16:35:11.963Z,9.67
2022-10-13T16:37:40.120Z,15.37
2022-10-13T16:40:10.834Z,13.33
2022-10-13T16:42:39.020Z,17.93
2022-10-13T16:45:08.643Z,14.23
2022-10-13T16:47:37.014Z,15.47
2022-10-13T16:50:09.931Z,9.70
2022-10-13T16:52:38.685Z,13.27
2022-10-13T16:55:08.056Z,17.43
2022-10-13T16:57:36.430Z,16.63
2022-10-13T17:00:05.594Z,14.70
2022-10-13T17:02:33.938Z,16.00
2022-10-13T17:05:02.582Z,12.97
2022-10-13T17:07:32.714Z,13.90
2022-10-13T17:10:01.543Z,11.93
2022-10-13T17:12:29.764Z,12.50
2022-10-13T17:15:00.810Z,12.17
2022-10-13T17:17:29.135Z,12.33
2022-10-13T17:19:57.371Z,16.00
2022-10-13T17:22:26.939Z,12.37
2022-10-13T17:24:56.694Z,12.77
2022-10-13T17:27:25.345Z,14.57
2022-10-13T17:29:55.069Z,13.60
2022-10-13T17:32:25.658Z,11.00
2022-10-13T17:34:57.213Z,12.17
2022-10-13T17:37:28.165Z,11.97
2022-10-13T17:39:57.933Z,13.30
2022-10-13T17:42:26.137Z,13.03
2022-10-13T17:44:54.437Z,17.33
2022-10-13T17:47:23.086Z,13.17
2022-10-13T17:49:51.667Z,11.67
2022-10-13T17:52:19.776Z,9.47
2022-10-13T17:54:47.973Z,10.70
2022-10-13T17:57:18.188Z,10.63
2022-10-13T17:59:47.262Z,15.77
2022-10-13T18:02:15.692Z,10.13
2022-10-13T18:04:45.091Z,16.07
2022-10-13T18:07:13.194Z,9.60
2022-10-13T18:09:42.027Z,12.30
2022-10-13T18:12:10.323Z,11.13
2022-10-13T18:14:41.687Z,13.50
2022-10-13T18:17:12.562Z,12.73
2022-10-13T18:19:44.084Z,11.30
2022-10-13T18:22:12.433Z,10.73
2022-10-13T18:24:41.360Z,11.10
2022-10-13T18:27:12.866Z,11.33
2022-10-13T18:29:43.923Z,10.07
2022-10-13T18:32:11.967Z,8.50
2022-10-13T18:34:40.147Z,9.63
2022-10-13T18:37:08.883Z,12.43
2022-10-13T18:39:36.917Z,13.10
2022-10-13T18:42:05.538Z,10.53
2022-10-13T18:44:37.026Z,17.43
2022-10-13T18:47:07.395Z,9.37
2022-10-13T18:49:35.703Z,12.70
2022-10-13T18:52:04.145Z,12.23
2022-10-13T18:54:32.728Z,9.40
2022-10-13T18:57:00.935Z,9.67
2022-10-13T18:59:29.356Z,11.77
2022-10-13T19:01:57.488Z,9.10
2022-10-13T19:04:27.284Z,11.27
2022-10-13T19:06:55.570Z,11.37
2022-10-13T19:09:25.144Z,11.93
2022-10-13T19:11:56.552Z,10.83
2022-10-13T19:14:24.641Z,12.70
2022-10-13T19:16:52.740Z,10.80
2022-10-13T19:19:21.030Z,12.77
2022-10-13T19:21:50.864Z,12.93
2022-10-13T19:24:19.309Z,19.23
2022-10-13T19:26:47.727Z,18.20
2022-10-13T19:29:16.274Z,20.03
2022-10-13T19:31:44.979Z,16.20
2022-10-13T19:34:14.397Z,15.70
2022-10-13T19:36:43.878Z,19.63
2022-10-13T19:39:16.271Z,18.43
2022-10-13T19:41:45.146Z,16.97
2022-10-13T19:44:13.574Z,11.73
2022-10-13T19:46:43.712Z,16.03
2022-10-13T19:49:16.253Z,13.97
2022-10-13T19:51:44.902Z,13.53
2022-10-13T19:54:14.715Z,19.73
2022-10-13T19:56:42.956Z,12.33
2022-10-13T19:59:11.628Z,14.50
2022-10-13T20:01:42.125Z,12.57
2022-10-13T20:04:11.011Z,16.87
2022-10-13T20:06:42.296Z,18.50
2022-10-13T20:09:10.971Z,16.20
2022-10-13T20:11:41.052Z,18.17
2022-10-13T20:14:09.965Z,14.93
2022-10-13T20:16:39.018Z,21.77
2022-10-13T20:19:07.657Z,14.60
2022-10-13T20:21:35.991Z,22.83
2022-10-13T20:24:04.319Z,25.30
2022-10-13T20:26:32.800Z,23.93
2022-10-13T20:29:02.455Z,22.77
2022-10-13T20:31:30.679Z,16.93
2022-10-13T20:34:00.498Z,17.00
2022-10-13T20:36:29.302Z,19.33
2022-10-13T20:38:57.476Z,22.07
2022-10-13T20:41:28.408Z,18.40
2022-10-13T20:43:59.230Z,16.93
2022-10-13T20:46:29.222Z,17.50
2022-10-13T20:49:10.321Z,24.20
2022-10-13T20:51:40.355Z,20.30
2022-10-13T20:54:08.905Z,25.83
2022-10-13T20:56:37.126Z,22.80
2022-10-13T20:59:06.475Z,31.03
2022-10-13T21:01:37.117Z,25.97
2022-10-13T21:04:06.191Z,28.83
2022-10-13T21:06:35.951Z,36.37
2022-10-13T21:09:05.906Z,31.73
2022-10-13T21:11:34.802Z,30.57
2022-10-13T21:14:06.630Z,25.23
2022-10-13T21:16:37.177Z,27.23
2022-10-13T21:19:05.769Z,39.43
2022-10-13T21:21:36.076Z,36.30
2022-10-13T21:24:07.550Z,33.13
2022-10-13T21:26:36.507Z,32.33
2022-10-13T21:29:05.314Z,37.33
2022-10-13T21:31:33.710Z,34.93
2022-10-13T21:34:03.333Z,32.57
2022-10-13T21:36:33.112Z,38.47
2022-10-13T21:39:03.848Z,33.80
2022-10-13T21:41:32.438Z,30.50
2022-10-13T21:44:00.684Z,33.90
2022-10-13T21:46:30.456Z,27.67
2022-10-13T21:49:00.533Z,27.60
2022-10-13T21:51:31.940Z,39.10
2022-10-13T21:54:02.000Z,30.83
2022-10-13T21:56:31.131Z,35.87
2022-10-13T21:58:59.722Z,40.17
2022-10-13T22:01:28.038Z,35.03
2022-10-13T22:03:58.385Z,34.87
2022-10-13T22:06:27.774Z,41.43
2022-10-13T22:09:00.257Z,38.47
2022-10-13T22:11:31.288Z,38.13
2022-10-13T22:14:00.624Z,35.57
2022-10-13T22:16:35.041Z,33.67
2022-10-13T22:19:03.393Z,37.90
2022-10-13T22:21:33.423Z,39.87
2022-10-13T22:24:06.158Z,38.93
2022-10-13T22:26:37.233Z,40.53
2022-10-13T22:29:07.962Z,36.67
2022-10-13T22:31:36.939Z,39.57
2022-10-13T22:34:05.817Z,34.43
2022-10-13T22:36:34.185Z,31.90
2022-10-13T22:39:05.637Z,33.57
2022-10-13T22:41:35.011Z,39.60
2022-10-13T22:44:04.485Z,35.63
2022-10-13T22:46:36.097Z,35.20
2022-10-13T22:49:05.650Z,42.90
2022-10-13T22:51:35.825Z,37.77
2022-10-13T22:54:06.397Z,41.70
2022-10-13T22:56:35.864Z,32.53
2022-10-13T22:59:06.730Z,35.40
2022-10-13T23:01:36.225Z,40.40
2022-10-13T23:04:05.500Z,39.10
2022-10-13T23:06:35.613Z,41.70
2022-10-13T23:09:07.744Z,41.03
2022-10-13T23:11:36.257Z,39.93
2022-10-13T23:14:04.982Z,41.53
2022-10-13T23:16:33.910Z,42.37
2022-10-13T23:19:02.477Z,43.63
2022-10-13T23:21:32.026Z,42.27
2022-10-13T23:24:02.487Z,46.00
2022-10-13T23:26:32.781Z,34.93
2022-10-13T23:29:01.678Z,38.63
2022-10-13T23:31:30.475Z,38.23
2022-10-13T23:33:59.679Z,50.07
2022-10-13T23:36:29.826Z,46.60
2022-10-13T23:38:59.737Z,49.40
2022-10-13T23:41:28.447Z,46.13
2022-10-13T23:43:58.490Z,44.90
2022-10-13T23:46:27.301Z,35.93
2022-10-13T23:48:55.435Z,42.30
2022-10-13T23:51:25.923Z,45.60
2022-10-13T23:53:54.553Z,47.77
2022-10-13T23:56:23.129Z,39.53
2022-10-13T23:58:51.977Z,42.40
